KPZQ METAR Reports


Rogers City, Presque Isle County Airport, MI, United States (KPZQ) 45-24-25N 083-48-46W
May 25, 2020 - 06:35 AM EDT / 2020.05.25 1035 UTC
Wind: Calm:0
Visibility: less than 1/4 mile(s):1
Sky conditions: overcast
Weather: fog
Temperature: 48.9 F (9.4 C)
Dew Point: 47.3 F (8.5 C)
Relative Humidity: 94%
Pressure (altimeter): 29.99 in. Hg (1015 hPa)
ob: KPZQ 251035Z AUTO 00000KT M1/4SM FG OVC002 09/09 A2999 RMK AO2 T00940085
cycle: 10

 

Rogers City METAR Meteogram

Weather Chart

Nearby METAR Reports

KPZQ - Rogers City, Michigan, USA
Distance from station: SSW 1mi, 2km
Updated: Mon, 25-May-2020 6:35am EDT
Fog, Overcast
Fog, Overcast
 Wind from calm
Wind: Calm
Temperature: 48°F , 9°C
Dew Point: 48°F , 9°C
Humidity: 100%
Barometer: 29.99 inHg , 1015.6 hPa
Summary: Fog
Clouds: Overcast
Visibility: less than 1/4 mile , 0.4 km
Cloud details: Overcast 200 ft
2020/05/25 10:35 KPZQ 251035Z AUTO 00000KT M1/4SM FG OVC002 09/09 A2999 RMK AO2 T00940085
KAPN - Alpena, Michigan, USA
Distance from station: SSE 27mi, 43km
Updated: Mon, 25-May-2020 5:54am EDT
NOT Current
Fog, Overcast
Fog, Overcast
 Wind from calm
Wind: Calm
Temperature: 54°F , 12°C
Dew Point: 54°F , 12°C
Humidity: 100%
Barometer: 29.98 inHg , 1015.2 hPa
Summary: Fog
Clouds: Overcast
Visibility: 1/4 mile , 0.4 km
Cloud details: Overcast 200 ft
2020/05/25 09:54 KAPN 250954Z AUTO 00000KT 1/4SM FG VV002 12/12 A2998 RMK AO2 SLP152 T01170117 $
 
KSLH - Cheboygan, Michigan, USA
Distance from station: WNW 38mi, 61km
Updated: Mon, 25-May-2020 6:35am EDT
Fog, Overcast
Fog, Overcast
 Wind from calm
Wind: Calm
Temperature: 52°F , 11°C
Dew Point: 52°F , 11°C
Humidity: 100%
Barometer: 29.96 inHg , 1014.6 hPa
Summary: Fog
Clouds: Overcast
Visibility: less than 1/4 mile , 0.4 km
Cloud details: Overcast 100 ft
2020/05/25 10:35 KSLH 251035Z AUTO 00000KT M1/4SM FG OVC001 11/11 A2996 RMK AO2 T01120112
KDRM - Drummond Is, Michigan, USA
Distance from station: N 40mi, 65km
Updated: Mon, 25-May-2020 6:36am EDT
Fog, Overcast
Fog, Overcast
 Wind from calm
Wind: Calm
Temperature: 52°F , 11°C
Dew Point: 52°F , 11°C
Humidity: 100%
Barometer: 29.98 inHg , 1015.2 hPa
Summary: Fog
Clouds: Overcast
Visibility: 1/2 mile , 0.8 km
Cloud details: Overcast 200 ft
2020/05/25 10:36 KDRM 251036Z AUTO 00000KT 1/2SM FG OVC002 11/11 A2998 RMK AO2 T01060106
 
KPLN - Pellston, Michigan, USA
Distance from station: WNW 49mi, 79km
Updated: Mon, 25-May-2020 5:54am EDT
NOT Current
Fog, Overcast
Fog, Overcast
 Wind from calm
Wind: Calm
Temperature: 55°F , 13°C
Dew Point: 55°F , 13°C
Humidity: 100%
Barometer: 29.97 inHg , 1014.9 hPa
Summary: Fog
Clouds: Overcast
Visibility: 1/4 mile , 0.4 km
Cloud details: Overcast 200 ft
2020/05/25 09:54 KPLN 250954Z AUTO 00000KT 1/4SM FG VV002 13/13 A2997 RMK AO2 SLP147 T01280128
KMCD - Mackinac Island, Michigan, USA
Distance from station: NW 50mi, 80km
Updated: Mon, 25-May-2020 6:36am EDT
Fog, Overcast
Fog, Overcast
 Wind from ESE
Wind: ESE 3 mph , 6 km/h
Temperature: 52°F , 11°C
Dew Point: 52°F , 11°C
Humidity: 100%
Barometer: 29.97 inHg , 1014.9 hPa
Summary: Fog
Clouds: Overcast
Visibility: 1/4 mile , 0.4 km
Cloud details: Overcast 200 ft
2020/05/25 10:36 KMCD 251036Z AUTO 11003KT 1/4SM FG OVC002 11/11 A2997 RMK AO2 T01060106